This is the latest recevied weather packets stored in our database for station/object WX5RP. If no packets are shown the sender has not sent any weather packets the latest 10 day(s).
| Time | Temp. | Humidity | Pressure | Rain* | Wind** | Luminosity | Snow |
|---|---|---|---|---|---|---|---|
| 1787956816 | 28.33° C | 22% | 1015 hPa | 0 mm | - | 549 W/m² | - |
| 1787956216 | 28.33° C | 24% | 1015.1 hPa | 0 mm | - | 731 W/m² | - |
| 1787955616 | 27.78° C | 23% | 1015 hPa | 0 mm | - | 725 W/m² | - |
| 1787955016 | 28.33° C | 24% | 1015.1 hPa | 0 mm | - | 778 W/m² | - |
| 1787954416 | 28.33° C | 24% | 1015.4 hPa | 0 mm | - | 793 W/m² | - |
| 1787953816 | 28.33° C | 19% | 1015.8 hPa | 0 mm | - | 48 W/m² | - |
| 1787953216 | 27.78° C | 23% | 1016.4 hPa | 0 mm | - | 832 W/m² | - |
| 1787952616 | 27.78° C | 23% | 1016.4 hPa | 0 mm | - | 848 W/m² | - |
| 1787952016 | 27.78° C | 25% | 1016.3 hPa | 0 mm | - | 866 W/m² | - |
| 1787951421 | 27.78° C | 27% | 1016.3 hPa | 0 mm | - | 873 W/m² | - |
| 1787950816 | 27.78° C | 23% | 1016.4 hPa | 0 mm | - | 873 W/m² | - |
| 1787950216 | 27.78° C | 22% | 1016.4 hPa | 0 mm | - | 881 W/m² | - |
| 1787949616 | 27.22° C | 24% | 1016.7 hPa | 0 mm | - | 891 W/m² | - |
| 1787949017 | 26.67° C | 23% | 1016.3 hPa | 0 mm | - | 898 W/m² | - |
| 1787948416 | 26.67° C | 24% | 1016.6 hPa | 0 mm | - | 906 W/m² | - |
| 1787947816 | 26.67° C | 24% | 1016.8 hPa | 0 mm | - | 900 W/m² | - |
| 1787947216 | 25.56° C | 26% | 1016.9 hPa | 0 mm | - | 905 W/m² | - |
| 1787946616 | 26.11° C | 26% | 1017 hPa | 0 mm | - | 905 W/m² | - |
| 1787946016 | 25.56° C | 26% | 1017.4 hPa | 0 mm | - | 900 W/m² | - |
| 1787945415 | 25.56° C | 28% | 1017.5 hPa | 0 mm | - | 871 W/m² | - |
| 1787944815 | 25° C | 30% | 1017.7 hPa | 0 mm | - | 897 W/m² | - |
| 1787944215 | 25° C | 28% | 1017.6 hPa | 0 mm | - | 883 W/m² | - |
| 1787943615 | 25° C | 29% | 1017.9 hPa | 0 mm | - | 877 W/m² | - |
| 1787943015 | 24.44° C | 28% | 1018 hPa | 0 mm | - | 869 W/m² | - |
| 1787942415 | 24.44° C | 29% | 1018.9 hPa | 0 mm | - | 860 W/m² | - |
* Rain latest hour (hover to see other rain measurements)
** Current wind speed in m/s (hover to see current wind gust speed)